sensor_id;sensor_type;location;lat;lon;timestamp;P1;durP1;ratioP1;P2;durP2;ratioP2
39996;SDS011;25688;52.338;21.072;2023-05-10T00:02:06;18.05;;;9.50;;
39996;SDS011;25688;52.338;21.072;2023-05-10T00:04:32;23.80;;;9.85;;
39996;SDS011;25688;52.338;21.072;2023-05-10T00:06:57;17.30;;;8.65;;
39996;SDS011;25688;52.338;21.072;2023-05-10T00:09:23;18.05;;;7.88;;
39996;SDS011;25688;52.338;21.072;2023-05-10T00:11:49;15.15;;;7.95;;
39996;SDS011;25688;52.338;21.072;2023-05-10T00:14:14;16.65;;;8.90;;
39996;SDS011;25688;52.338;21.072;2023-05-10T00:16:40;18.25;;;8.70;;
39996;SDS011;25688;52.338;21.072;2023-05-10T00:19:06;19.60;;;9.20;;
39996;SDS011;25688;52.338;21.072;2023-05-10T00:21:32;18.55;;;9.68;;
39996;SDS011;25688;52.338;21.072;2023-05-10T00:23:58;17.75;;;9.65;;
39996;SDS011;25688;52.338;21.072;2023-05-10T00:26:24;18.05;;;9.40;;
39996;SDS011;25688;52.338;21.072;2023-05-10T00:28:50;18.00;;;9.63;;
39996;SDS011;25688;52.338;21.072;2023-05-10T00:31:16;19.63;;;9.70;;
39996;SDS011;25688;52.338;21.072;2023-05-10T00:33:42;18.83;;;9.48;;
39996;SDS011;25688;52.338;21.072;2023-05-10T00:36:07;17.35;;;9.40;;
39996;SDS011;25688;52.338;21.072;2023-05-10T00:38:33;16.05;;;9.20;;
39996;SDS011;25688;52.338;21.072;2023-05-10T00:40:59;20.35;;;10.55;;
39996;SDS011;25688;52.338;21.072;2023-05-10T00:43:25;18.98;;;9.73;;
39996;SDS011;25688;52.338;21.072;2023-05-10T00:45:51;19.60;;;9.23;;
39996;SDS011;25688;52.338;21.072;2023-05-10T00:48:17;18.67;;;10.23;;
39996;SDS011;25688;52.338;21.072;2023-05-10T00:50:46;17.05;;;8.95;;
39996;SDS011;25688;52.338;21.072;2023-05-10T00:53:13;19.38;;;10.52;;
39996;SDS011;25688;52.338;21.072;2023-05-10T00:55:39;22.33;;;10.70;;
39996;SDS011;25688;52.338;21.072;2023-05-10T00:58:05;16.83;;;9.63;;
39996;SDS011;25688;52.338;21.072;2023-05-10T01:00:32;20.90;;;10.77;;
39996;SDS011;25688;52.338;21.072;2023-05-10T01:02:58;22.33;;;11.27;;
39996;SDS011;25688;52.338;21.072;2023-05-10T01:05:24;16.48;;;9.32;;
39996;SDS011;25688;52.338;21.072;2023-05-10T01:07:50;20.08;;;9.93;;
39996;SDS011;25688;52.338;21.072;2023-05-10T01:10:16;19.85;;;9.43;;
39996;SDS011;25688;52.338;21.072;2023-05-10T01:12:42;19.88;;;9.38;;
39996;SDS011;25688;52.338;21.072;2023-05-10T01:15:10;20.40;;;10.68;;
39996;SDS011;25688;52.338;21.072;2023-05-10T01:17:38;17.55;;;9.85;;
39996;SDS011;25688;52.338;21.072;2023-05-10T01:20:07;18.65;;;10.35;;
39996;SDS011;25688;52.338;21.072;2023-05-10T01:22:45;20.58;;;9.23;;
39996;SDS011;25688;52.338;21.072;2023-05-10T01:28:53;18.33;;;8.68;;
39996;SDS011;25688;52.338;21.072;2023-05-10T01:32:11;20.23;;;9.20;;
39996;SDS011;25688;52.338;21.072;2023-05-10T01:37:35;19.27;;;9.82;;
39996;SDS011;25688;52.338;21.072;2023-05-10T01:40:14;17.38;;;9.00;;
39996;SDS011;25688;52.338;21.072;2023-05-10T01:42:52;14.88;;;8.63;;
39996;SDS011;25688;52.338;21.072;2023-05-10T01:47:53;17.40;;;8.95;;
39996;SDS011;25688;52.338;21.072;2023-05-10T01:50:27;15.05;;;8.00;;
39996;SDS011;25688;52.338;21.072;2023-05-10T01:52:55;16.85;;;8.65;;
39996;SDS011;25688;52.338;21.072;2023-05-10T01:55:24;17.50;;;8.23;;
39996;SDS011;25688;52.338;21.072;2023-05-10T01:58:00;16.08;;;8.57;;
39996;SDS011;25688;52.338;21.072;2023-05-10T02:00:47;16.65;;;8.18;;
39996;SDS011;25688;52.338;21.072;2023-05-10T02:03:15;17.67;;;9.45;;
39996;SDS011;25688;52.338;21.072;2023-05-10T02:05:43;19.75;;;8.82;;
39996;SDS011;25688;52.338;21.072;2023-05-10T02:08:11;17.85;;;8.50;;
39996;SDS011;25688;52.338;21.072;2023-05-10T02:10:38;18.73;;;8.07;;
39996;SDS011;25688;52.338;21.072;2023-05-10T02:13:05;18.00;;;8.90;;
39996;SDS011;25688;52.338;21.072;2023-05-10T02:15:33;17.75;;;7.90;;
39996;SDS011;25688;52.338;21.072;2023-05-10T02:18:01;16.23;;;8.77;;
39996;SDS011;25688;52.338;21.072;2023-05-10T02:20:28;16.08;;;7.78;;
39996;SDS011;25688;52.338;21.072;2023-05-10T02:22:56;15.25;;;7.88;;
39996;SDS011;25688;52.338;21.072;2023-05-10T02:25:23;15.63;;;8.15;;
39996;SDS011;25688;52.338;21.072;2023-05-10T02:27:50;24.58;;;9.65;;
39996;SDS011;25688;52.338;21.072;2023-05-10T02:30:19;15.52;;;8.35;;
39996;SDS011;25688;52.338;21.072;2023-05-10T02:32:45;16.42;;;8.05;;
39996;SDS011;25688;52.338;21.072;2023-05-10T02:35:13;16.33;;;8.50;;
39996;SDS011;25688;52.338;21.072;2023-05-10T02:37:40;18.88;;;8.80;;
39996;SDS011;25688;52.338;21.072;2023-05-10T02:40:07;19.15;;;8.05;;
39996;SDS011;25688;52.338;21.072;2023-05-10T02:42:35;19.42;;;8.82;;
39996;SDS011;25688;52.338;21.072;2023-05-10T02:45:03;13.65;;;7.78;;
39996;SDS011;25688;52.338;21.072;2023-05-10T02:47:32;14.25;;;8.25;;
39996;SDS011;25688;52.338;21.072;2023-05-10T02:49:59;28.48;;;9.48;;
39996;SDS011;25688;52.338;21.072;2023-05-10T02:52:25;14.85;;;8.32;;
39996;SDS011;25688;52.338;21.072;2023-05-10T02:54:55;16.05;;;7.63;;
39996;SDS011;25688;52.338;21.072;2023-05-10T02:57:27;16.20;;;7.57;;
39996;SDS011;25688;52.338;21.072;2023-05-10T02:59:57;15.15;;;7.53;;
39996;SDS011;25688;52.338;21.072;2023-05-10T03:02:23;14.65;;;7.90;;
39996;SDS011;25688;52.338;21.072;2023-05-10T03:04:49;18.60;;;7.93;;
39996;SDS011;25688;52.338;21.072;2023-05-10T03:07:15;19.02;;;7.93;;
39996;SDS011;25688;52.338;21.072;2023-05-10T03:09:41;15.50;;;7.85;;
39996;SDS011;25688;52.338;21.072;2023-05-10T03:12:10;14.38;;;6.85;;
39996;SDS011;25688;52.338;21.072;2023-05-10T03:14:42;15.57;;;7.05;;
39996;SDS011;25688;52.338;21.072;2023-05-10T03:17:23;15.25;;;8.13;;
39996;SDS011;25688;52.338;21.072;2023-05-10T03:22:31;19.00;;;7.90;;
39996;SDS011;25688;52.338;21.072;2023-05-10T03:25:02;14.15;;;7.90;;
39996;SDS011;25688;52.338;21.072;2023-05-10T03:27:31;14.38;;;7.72;;
39996;SDS011;25688;52.338;21.072;2023-05-10T03:29:58;18.17;;;8.77;;
39996;SDS011;25688;52.338;21.072;2023-05-10T03:32:26;14.90;;;7.45;;
39996;SDS011;25688;52.338;21.072;2023-05-10T03:34:55;17.45;;;7.78;;
39996;SDS011;25688;52.338;21.072;2023-05-10T03:37:20;14.77;;;7.70;;
39996;SDS011;25688;52.338;21.072;2023-05-10T03:39:46;14.32;;;7.47;;
39996;SDS011;25688;52.338;21.072;2023-05-10T03:42:12;16.55;;;7.38;;
39996;SDS011;25688;52.338;21.072;2023-05-10T03:44:40;14.02;;;7.80;;
39996;SDS011;25688;52.338;21.072;2023-05-10T03:47:06;17.15;;;8.20;;
39996;SDS011;25688;52.338;21.072;2023-05-10T03:49:32;14.75;;;7.68;;
39996;SDS011;25688;52.338;21.072;2023-05-10T03:51:57;15.18;;;7.55;;
39996;SDS011;25688;52.338;21.072;2023-05-10T03:54:23;18.25;;;7.45;;
39996;SDS011;25688;52.338;21.072;2023-05-10T03:56:49;17.50;;;7.85;;
39996;SDS011;25688;52.338;21.072;2023-05-10T03:59:15;18.25;;;6.72;;
39996;SDS011;25688;52.338;21.072;2023-05-10T04:01:40;13.38;;;6.90;;
39996;SDS011;25688;52.338;21.072;2023-05-10T04:04:06;15.88;;;7.30;;
39996;SDS011;25688;52.338;21.072;2023-05-10T04:06:32;17.73;;;7.22;;
39996;SDS011;25688;52.338;21.072;2023-05-10T04:08:57;16.90;;;6.95;;
39996;SDS011;25688;52.338;21.072;2023-05-10T04:11:25;13.60;;;6.22;;
39996;SDS011;25688;52.338;21.072;2023-05-10T04:13:51;13.77;;;6.45;;
39996;SDS011;25688;52.338;21.072;2023-05-10T04:16:17;13.93;;;5.90;;
39996;SDS011;25688;52.338;21.072;2023-05-10T04:18:42;11.70;;;5.63;;
39996;SDS011;25688;52.338;21.072;2023-05-10T04:21:12;12.90;;;5.43;;
39996;SDS011;25688;52.338;21.072;2023-05-10T04:23:38;11.32;;;5.65;;
39996;SDS011;25688;52.338;21.072;2023-05-10T04:26:04;14.02;;;5.97;;
39996;SDS011;25688;52.338;21.072;2023-05-10T04:28:30;12.73;;;5.60;;
39996;SDS011;25688;52.338;21.072;2023-05-10T04:31:03;9.70;;;5.93;;
39996;SDS011;25688;52.338;21.072;2023-05-10T04:33:29;10.38;;;5.40;;
39996;SDS011;25688;52.338;21.072;2023-05-10T04:35:55;13.65;;;6.25;;
39996;SDS011;25688;52.338;21.072;2023-05-10T04:38:21;9.98;;;5.57;;
39996;SDS011;25688;52.338;21.072;2023-05-10T04:40:47;11.13;;;6.22;;
39996;SDS011;25688;52.338;21.072;2023-05-10T04:43:12;11.38;;;5.25;;
39996;SDS011;25688;52.338;21.072;2023-05-10T04:45:38;10.52;;;5.03;;
39996;SDS011;25688;52.338;21.072;2023-05-10T04:48:05;13.05;;;5.40;;
39996;SDS011;25688;52.338;21.072;2023-05-10T04:50:30;12.35;;;5.78;;
39996;SDS011;25688;52.338;21.072;2023-05-10T04:52:56;10.07;;;4.97;;
39996;SDS011;25688;52.338;21.072;2023-05-10T04:55:22;12.20;;;5.43;;
39996;SDS011;25688;52.338;21.072;2023-05-10T04:57:48;11.02;;;5.40;;
39996;SDS011;25688;52.338;21.072;2023-05-10T05:00:13;12.98;;;4.80;;
39996;SDS011;25688;52.338;21.072;2023-05-10T05:02:45;10.73;;;5.15;;
39996;SDS011;25688;52.338;21.072;2023-05-10T05:05:11;8.82;;;4.78;;
39996;SDS011;25688;52.338;21.072;2023-05-10T05:07:37;9.80;;;4.80;;
39996;SDS011;25688;52.338;21.072;2023-05-10T05:10:07;9.95;;;4.97;;
39996;SDS011;25688;52.338;21.072;2023-05-10T05:12:33;11.05;;;4.78;;
39996;SDS011;25688;52.338;21.072;2023-05-10T05:15:00;12.27;;;4.97;;
39996;SDS011;25688;52.338;21.072;2023-05-10T05:17:26;12.02;;;5.25;;
39996;SDS011;25688;52.338;21.072;2023-05-10T05:19:52;10.07;;;4.97;;
39996;SDS011;25688;52.338;21.072;2023-05-10T05:22:19;11.15;;;4.45;;
39996;SDS011;25688;52.338;21.072;2023-05-10T05:24:51;9.52;;;4.22;;
39996;SDS011;25688;52.338;21.072;2023-05-10T05:27:17;8.88;;;3.90;;
39996;SDS011;25688;52.338;21.072;2023-05-10T05:29:43;9.77;;;4.70;;
39996;SDS011;25688;52.338;21.072;2023-05-10T05:32:08;9.32;;;4.40;;
39996;SDS011;25688;52.338;21.072;2023-05-10T05:34:35;10.73;;;4.13;;
39996;SDS011;25688;52.338;21.072;2023-05-10T05:37:00;16.35;;;4.88;;
39996;SDS011;25688;52.338;21.072;2023-05-10T05:39:26;9.95;;;4.22;;
39996;SDS011;25688;52.338;21.072;2023-05-10T05:41:52;8.05;;;4.30;;
39996;SDS011;25688;52.338;21.072;2023-05-10T05:44:18;12.07;;;4.30;;
39996;SDS011;25688;52.338;21.072;2023-05-10T05:46:43;9.93;;;4.38;;
39996;SDS011;25688;52.338;21.072;2023-05-10T05:49:09;8.07;;;3.85;;
39996;SDS011;25688;52.338;21.072;2023-05-10T05:51:35;10.45;;;3.95;;
39996;SDS011;25688;52.338;21.072;2023-05-10T05:54:01;6.57;;;3.55;;
39996;SDS011;25688;52.338;21.072;2023-05-10T05:56:28;12.30;;;4.13;;
39996;SDS011;25688;52.338;21.072;2023-05-10T05:58:54;12.30;;;4.28;;
39996;SDS011;25688;52.338;21.072;2023-05-10T06:01:20;8.40;;;3.88;;
39996;SDS011;25688;52.338;21.072;2023-05-10T06:03:46;12.85;;;3.83;;
39996;SDS011;25688;52.338;21.072;2023-05-10T06:06:11;14.30;;;3.88;;
39996;SDS011;25688;52.338;21.072;2023-05-10T06:08:37;9.98;;;3.58;;
39996;SDS011;25688;52.338;21.072;2023-05-10T06:11:03;8.30;;;3.47;;
39996;SDS011;25688;52.338;21.072;2023-05-10T06:13:29;14.73;;;4.25;;
39996;SDS011;25688;52.338;21.072;2023-05-10T06:16:00;12.45;;;3.50;;
39996;SDS011;25688;52.338;21.072;2023-05-10T06:18:27;14.82;;;3.65;;
39996;SDS011;25688;52.338;21.072;2023-05-10T06:20:52;10.98;;;4.07;;
39996;SDS011;25688;52.338;21.072;2023-05-10T06:23:18;15.77;;;3.20;;
39996;SDS011;25688;52.338;21.072;2023-05-10T06:25:44;9.13;;;3.33;;
39996;SDS011;25688;52.338;21.072;2023-05-10T06:28:09;7.93;;;3.58;;
39996;SDS011;25688;52.338;21.072;2023-05-10T06:30:39;7.82;;;3.20;;
39996;SDS011;25688;52.338;21.072;2023-05-10T06:33:04;9.77;;;3.20;;
39996;SDS011;25688;52.338;21.072;2023-05-10T06:35:30;9.63;;;3.45;;
39996;SDS011;25688;52.338;21.072;2023-05-10T06:37:58;12.10;;;4.07;;
39996;SDS011;25688;52.338;21.072;2023-05-10T06:40:24;10.88;;;3.65;;
39996;SDS011;25688;52.338;21.072;2023-05-10T06:42:50;8.55;;;3.15;;
39996;SDS011;25688;52.338;21.072;2023-05-10T06:45:16;6.10;;;2.88;;
39996;SDS011;25688;52.338;21.072;2023-05-10T06:47:42;9.07;;;2.97;;
39996;SDS011;25688;52.338;21.072;2023-05-10T06:50:08;5.72;;;2.60;;
39996;SDS011;25688;52.338;21.072;2023-05-10T06:52:35;7.78;;;2.75;;
39996;SDS011;25688;52.338;21.072;2023-05-10T06:55:01;9.35;;;2.72;;
39996;SDS011;25688;52.338;21.072;2023-05-10T06:57:27;13.38;;;3.53;;
39996;SDS011;25688;52.338;21.072;2023-05-10T06:59:52;8.27;;;2.40;;
39996;SDS011;25688;52.338;21.072;2023-05-10T07:02:18;7.18;;;2.70;;
39996;SDS011;25688;52.338;21.072;2023-05-10T07:04:44;7.47;;;2.63;;
39996;SDS011;25688;52.338;21.072;2023-05-10T07:07:11;9.43;;;3.22;;
39996;SDS011;25688;52.338;21.072;2023-05-10T07:09:38;9.05;;;3.13;;
39996;SDS011;25688;52.338;21.072;2023-05-10T07:12:04;8.95;;;3.58;;
39996;SDS011;25688;52.338;21.072;2023-05-10T07:14:30;4.95;;;2.13;;
39996;SDS011;25688;52.338;21.072;2023-05-10T07:16:55;10.40;;;2.85;;
39996;SDS011;25688;52.338;21.072;2023-05-10T07:19:21;8.55;;;2.78;;
39996;SDS011;25688;52.338;21.072;2023-05-10T07:21:47;5.35;;;2.38;;
39996;SDS011;25688;52.338;21.072;2023-05-10T07:24:13;7.43;;;2.72;;
39996;SDS011;25688;52.338;21.072;2023-05-10T07:26:38;5.95;;;2.35;;
39996;SDS011;25688;52.338;21.072;2023-05-10T07:29:04;7.30;;;3.05;;
39996;SDS011;25688;52.338;21.072;2023-05-10T07:31:30;6.75;;;2.55;;
39996;SDS011;25688;52.338;21.072;2023-05-10T07:33:56;6.25;;;2.38;;
39996;SDS011;25688;52.338;21.072;2023-05-10T07:36:21;5.78;;;2.55;;
39996;SDS011;25688;52.338;21.072;2023-05-10T07:38:47;6.07;;;2.50;;
39996;SDS011;25688;52.338;21.072;2023-05-10T07:41:14;6.32;;;2.13;;
39996;SDS011;25688;52.338;21.072;2023-05-10T07:43:40;5.10;;;2.05;;
39996;SDS011;25688;52.338;21.072;2023-05-10T07:46:05;4.90;;;2.70;;
39996;SDS011;25688;52.338;21.072;2023-05-10T07:48:31;17.95;;;2.70;;
39996;SDS011;25688;52.338;21.072;2023-05-10T07:50:57;7.38;;;2.80;;
39996;SDS011;25688;52.338;21.072;2023-05-10T07:53:23;5.50;;;2.30;;
39996;SDS011;25688;52.338;21.072;2023-05-10T07:55:52;9.15;;;2.25;;
39996;SDS011;25688;52.338;21.072;2023-05-10T07:58:23;6.00;;;2.72;;
39996;SDS011;25688;52.338;21.072;2023-05-10T08:00:49;7.55;;;2.80;;
39996;SDS011;25688;52.338;21.072;2023-05-10T08:03:15;5.30;;;2.42;;
39996;SDS011;25688;52.338;21.072;2023-05-10T08:05:40;6.03;;;2.30;;
39996;SDS011;25688;52.338;21.072;2023-05-10T08:08:06;9.00;;;2.60;;
39996;SDS011;25688;52.338;21.072;2023-05-10T08:10:32;5.03;;;2.70;;
39996;SDS011;25688;52.338;21.072;2023-05-10T08:12:58;7.70;;;2.70;;
39996;SDS011;25688;52.338;21.072;2023-05-10T08:15:24;6.22;;;2.63;;
39996;SDS011;25688;52.338;21.072;2023-05-10T08:17:51;10.00;;;2.80;;
39996;SDS011;25688;52.338;21.072;2023-05-10T08:20:16;8.20;;;2.95;;
39996;SDS011;25688;52.338;21.072;2023-05-10T08:22:44;8.88;;;2.80;;
39996;SDS011;25688;52.338;21.072;2023-05-10T08:25:10;5.95;;;2.30;;
39996;SDS011;25688;52.338;21.072;2023-05-10T08:27:36;6.82;;;2.17;;
39996;SDS011;25688;52.338;21.072;2023-05-10T08:30:02;4.50;;;2.30;;
39996;SDS011;25688;52.338;21.072;2023-05-10T08:32:27;8.27;;;2.33;;
39996;SDS011;25688;52.338;21.072;2023-05-10T08:34:53;5.20;;;2.50;;
39996;SDS011;25688;52.338;21.072;2023-05-10T08:37:19;6.05;;;1.90;;
39996;SDS011;25688;52.338;21.072;2023-05-10T08:39:45;5.93;;;2.40;;
39996;SDS011;25688;52.338;21.072;2023-05-10T08:42:12;7.25;;;2.38;;
39996;SDS011;25688;52.338;21.072;2023-05-10T08:44:44;9.82;;;2.70;;
39996;SDS011;25688;52.338;21.072;2023-05-10T08:47:13;6.45;;;2.30;;
39996;SDS011;25688;52.338;21.072;2023-05-10T08:49:41;3.88;;;2.03;;
39996;SDS011;25688;52.338;21.072;2023-05-10T08:52:08;7.38;;;2.40;;
39996;SDS011;25688;52.338;21.072;2023-05-10T08:54:37;6.13;;;2.10;;
39996;SDS011;25688;52.338;21.072;2023-05-10T08:57:03;5.82;;;2.33;;
39996;SDS011;25688;52.338;21.072;2023-05-10T08:59:29;3.63;;;1.95;;
39996;SDS011;25688;52.338;21.072;2023-05-10T09:01:58;6.88;;;2.30;;
39996;SDS011;25688;52.338;21.072;2023-05-10T09:04:25;7.05;;;2.50;;
39996;SDS011;25688;52.338;21.072;2023-05-10T09:06:51;8.93;;;2.20;;
39996;SDS011;25688;52.338;21.072;2023-05-10T09:09:17;3.75;;;2.22;;
39996;SDS011;25688;52.338;21.072;2023-05-10T09:11:43;4.82;;;2.67;;
39996;SDS011;25688;52.338;21.072;2023-05-10T09:14:09;5.85;;;2.72;;
39996;SDS011;25688;52.338;21.072;2023-05-10T09:16:37;9.52;;;2.35;;
39996;SDS011;25688;52.338;21.072;2023-05-10T09:19:03;5.78;;;2.40;;
39996;SDS011;25688;52.338;21.072;2023-05-10T09:21:29;6.82;;;2.15;;
39996;SDS011;25688;52.338;21.072;2023-05-10T09:23:56;5.35;;;2.08;;
39996;SDS011;25688;52.338;21.072;2023-05-10T09:26:31;8.48;;;2.42;;
39996;SDS011;25688;52.338;21.072;2023-05-10T09:28:57;5.57;;;2.28;;
39996;SDS011;25688;52.338;21.072;2023-05-10T09:31:24;8.57;;;2.53;;
39996;SDS011;25688;52.338;21.072;2023-05-10T09:34:07;5.03;;;2.30;;
39996;SDS011;25688;52.338;21.072;2023-05-10T09:36:33;9.02;;;2.60;;
39996;SDS011;25688;52.338;21.072;2023-05-10T09:38:59;6.18;;;2.58;;
39996;SDS011;25688;52.338;21.072;2023-05-10T09:41:24;4.57;;;2.35;;
39996;SDS011;25688;52.338;21.072;2023-05-10T09:43:50;4.43;;;2.33;;
39996;SDS011;25688;52.338;21.072;2023-05-10T09:46:21;7.25;;;2.38;;
39996;SDS011;25688;52.338;21.072;2023-05-10T09:48:47;5.70;;;2.83;;
39996;SDS011;25688;52.338;21.072;2023-05-10T09:51:19;6.68;;;3.10;;
39996;SDS011;25688;52.338;21.072;2023-05-10T09:53:49;5.80;;;2.25;;
39996;SDS011;25688;52.338;21.072;2023-05-10T09:56:42;6.75;;;2.72;;
39996;SDS011;25688;52.338;21.072;2023-05-10T09:59:11;6.63;;;2.20;;
39996;SDS011;25688;52.338;21.072;2023-05-10T10:01:38;5.47;;;2.55;;
39996;SDS011;25688;52.338;21.072;2023-05-10T10:04:07;7.15;;;2.60;;
39996;SDS011;25688;52.338;21.072;2023-05-10T10:06:35;7.00;;;2.20;;
39996;SDS011;25688;52.338;21.072;2023-05-10T10:09:02;4.60;;;2.22;;
39996;SDS011;25688;52.338;21.072;2023-05-10T10:11:38;6.97;;;2.30;;
39996;SDS011;25688;52.338;21.072;2023-05-10T10:14:39;5.15;;;2.28;;
39996;SDS011;25688;52.338;21.072;2023-05-10T10:17:05;7.22;;;2.40;;
39996;SDS011;25688;52.338;21.072;2023-05-10T10:19:35;6.30;;;2.22;;
39996;SDS011;25688;52.338;21.072;2023-05-10T10:22:01;3.83;;;1.75;;
39996;SDS011;25688;52.338;21.072;2023-05-10T10:24:27;10.40;;;2.58;;
39996;SDS011;25688;52.338;21.072;2023-05-10T10:26:54;7.15;;;2.53;;
39996;SDS011;25688;52.338;21.072;2023-05-10T10:29:26;11.15;;;2.88;;
39996;SDS011;25688;52.338;21.072;2023-05-10T10:32:09;9.23;;;2.40;;
39996;SDS011;25688;52.338;21.072;2023-05-10T10:34:47;12.50;;;2.70;;
39996;SDS011;25688;52.338;21.072;2023-05-10T10:37:13;5.68;;;2.47;;
39996;SDS011;25688;52.338;21.072;2023-05-10T10:39:39;9.63;;;2.50;;
39996;SDS011;25688;52.338;21.072;2023-05-10T10:42:04;11.73;;;2.80;;
39996;SDS011;25688;52.338;21.072;2023-05-10T10:47:05;6.50;;;2.58;;
39996;SDS011;25688;52.338;21.072;2023-05-10T10:52:23;8.40;;;2.60;;
39996;SDS011;25688;52.338;21.072;2023-05-10T10:57:25;7.43;;;2.20;;
39996;SDS011;25688;52.338;21.072;2023-05-10T10:59:51;6.65;;;2.40;;
39996;SDS011;25688;52.338;21.072;2023-05-10T11:07:54;8.88;;;2.40;;
39996;SDS011;25688;52.338;21.072;2023-05-10T11:10:21;8.10;;;2.30;;
39996;SDS011;25688;52.338;21.072;2023-05-10T11:13:01;7.05;;;2.60;;
39996;SDS011;25688;52.338;21.072;2023-05-10T11:15:37;5.13;;;2.00;;
39996;SDS011;25688;52.338;21.072;2023-05-10T11:18:17;6.72;;;2.72;;
39996;SDS011;25688;52.338;21.072;2023-05-10T11:20:50;6.68;;;2.20;;
39996;SDS011;25688;52.338;21.072;2023-05-10T11:23:16;7.88;;;2.50;;
39996;SDS011;25688;52.338;21.072;2023-05-10T11:25:43;11.43;;;2.20;;
39996;SDS011;25688;52.338;21.072;2023-05-10T11:28:10;6.88;;;2.20;;
39996;SDS011;25688;52.338;21.072;2023-05-10T11:30:41;5.82;;;2.55;;
39996;SDS011;25688;52.338;21.072;2023-05-10T11:33:08;8.43;;;2.83;;
39996;SDS011;25688;52.338;21.072;2023-05-10T11:35:38;10.00;;;2.80;;
39996;SDS011;25688;52.338;21.072;2023-05-10T11:38:05;7.35;;;2.30;;
39996;SDS011;25688;52.338;21.072;2023-05-10T11:40:32;6.90;;;2.38;;
39996;SDS011;25688;52.338;21.072;2023-05-10T11:42:57;4.55;;;2.03;;
39996;SDS011;25688;52.338;21.072;2023-05-10T11:45:24;8.45;;;2.67;;
39996;SDS011;25688;52.338;21.072;2023-05-10T11:47:51;5.80;;;2.78;;
39996;SDS011;25688;52.338;21.072;2023-05-10T11:50:17;8.70;;;2.38;;
39996;SDS011;25688;52.338;21.072;2023-05-10T11:52:43;6.18;;;2.53;;
39996;SDS011;25688;52.338;21.072;2023-05-10T11:55:09;7.07;;;2.67;;
39996;SDS011;25688;52.338;21.072;2023-05-10T11:57:35;7.03;;;2.40;;
39996;SDS011;25688;52.338;21.072;2023-05-10T12:00:03;8.32;;;2.38;;
39996;SDS011;25688;52.338;21.072;2023-05-10T12:02:30;7.63;;;2.30;;
39996;SDS011;25688;52.338;21.072;2023-05-10T12:04:56;7.30;;;2.38;;
39996;SDS011;25688;52.338;21.072;2023-05-10T12:07:22;6.75;;;2.22;;
39996;SDS011;25688;52.338;21.072;2023-05-10T12:10:04;6.28;;;2.28;;
39996;SDS011;25688;52.338;21.072;2023-05-10T12:12:38;4.95;;;2.33;;
39996;SDS011;25688;52.338;21.072;2023-05-10T12:15:06;5.88;;;2.20;;
39996;SDS011;25688;52.338;21.072;2023-05-10T12:17:37;6.43;;;2.60;;
39996;SDS011;25688;52.338;21.072;2023-05-10T12:20:18;10.70;;;2.60;;
39996;SDS011;25688;52.338;21.072;2023-05-10T12:22:46;6.03;;;2.28;;
39996;SDS011;25688;52.338;21.072;2023-05-10T12:25:16;7.25;;;2.25;;
39996;SDS011;25688;52.338;21.072;2023-05-10T12:27:52;6.03;;;2.70;;
39996;SDS011;25688;52.338;21.072;2023-05-10T12:30:23;9.25;;;3.17;;
39996;SDS011;25688;52.338;21.072;2023-05-10T12:32:53;5.90;;;2.20;;
39996;SDS011;25688;52.338;21.072;2023-05-10T12:35:24;8.32;;;2.63;;
39996;SDS011;25688;52.338;21.072;2023-05-10T12:37:50;7.57;;;2.30;;
39996;SDS011;25688;52.338;21.072;2023-05-10T12:40:16;7.60;;;2.38;;
39996;SDS011;25688;52.338;21.072;2023-05-10T12:42:42;9.73;;;2.60;;
39996;SDS011;25688;52.338;21.072;2023-05-10T12:45:10;8.75;;;2.45;;
39996;SDS011;25688;52.338;21.072;2023-05-10T12:47:36;6.57;;;2.85;;
39996;SDS011;25688;52.338;21.072;2023-05-10T12:50:03;6.43;;;2.28;;
39996;SDS011;25688;52.338;21.072;2023-05-10T12:52:30;7.20;;;2.13;;
39996;SDS011;25688;52.338;21.072;2023-05-10T12:54:57;13.10;;;3.35;;
39996;SDS011;25688;52.338;21.072;2023-05-10T12:57:23;7.70;;;2.47;;
39996;SDS011;25688;52.338;21.072;2023-05-10T12:59:49;7.82;;;2.30;;
39996;SDS011;25688;52.338;21.072;2023-05-10T13:02:15;7.07;;;2.10;;
39996;SDS011;25688;52.338;21.072;2023-05-10T13:04:43;8.98;;;2.65;;
39996;SDS011;25688;52.338;21.072;2023-05-10T13:07:09;5.72;;;2.25;;
39996;SDS011;25688;52.338;21.072;2023-05-10T13:09:35;7.57;;;2.40;;
39996;SDS011;25688;52.338;21.072;2023-05-10T13:12:01;6.10;;;2.35;;
39996;SDS011;25688;52.338;21.072;2023-05-10T13:14:27;8.40;;;2.63;;
39996;SDS011;25688;52.338;21.072;2023-05-10T13:16:54;8.23;;;2.20;;
39996;SDS011;25688;52.338;21.072;2023-05-10T13:19:20;7.28;;;2.60;;
39996;SDS011;25688;52.338;21.072;2023-05-10T13:21:46;5.78;;;2.60;;
39996;SDS011;25688;52.338;21.072;2023-05-10T13:24:12;7.38;;;2.70;;
39996;SDS011;25688;52.338;21.072;2023-05-10T13:26:39;4.50;;;2.42;;
39996;SDS011;25688;52.338;21.072;2023-05-10T13:29:05;4.43;;;2.45;;
39996;SDS011;25688;52.338;21.072;2023-05-10T13:31:32;7.25;;;3.70;;
39996;SDS011;25688;52.338;21.072;2023-05-10T13:33:58;5.75;;;2.30;;
39996;SDS011;25688;52.338;21.072;2023-05-10T13:36:24;6.88;;;2.60;;
39996;SDS011;25688;52.338;21.072;2023-05-10T13:38:49;5.93;;;2.45;;
39996;SDS011;25688;52.338;21.072;2023-05-10T13:41:15;6.20;;;2.35;;
39996;SDS011;25688;52.338;21.072;2023-05-10T13:43:41;6.80;;;2.70;;
39996;SDS011;25688;52.338;21.072;2023-05-10T13:46:06;9.57;;;2.53;;
39996;SDS011;25688;52.338;21.072;2023-05-10T13:48:32;8.85;;;2.67;;
39996;SDS011;25688;52.338;21.072;2023-05-10T13:50:58;7.72;;;2.33;;
39996;SDS011;25688;52.338;21.072;2023-05-10T13:53:23;4.70;;;2.13;;
39996;SDS011;25688;52.338;21.072;2023-05-10T13:59:02;5.65;;;3.05;;
39996;SDS011;25688;52.338;21.072;2023-05-10T14:01:28;5.80;;;2.50;;
39996;SDS011;25688;52.338;21.072;2023-05-10T14:03:54;4.70;;;2.40;;
39996;SDS011;25688;52.338;21.072;2023-05-10T14:06:20;4.53;;;2.17;;
39996;SDS011;25688;52.338;21.072;2023-05-10T14:08:46;7.32;;;2.50;;
39996;SDS011;25688;52.338;21.072;2023-05-10T14:11:12;9.27;;;2.75;;
39996;SDS011;25688;52.338;21.072;2023-05-10T14:13:38;8.32;;;2.53;;
39996;SDS011;25688;52.338;21.072;2023-05-10T14:16:04;4.75;;;2.03;;
39996;SDS011;25688;52.338;21.072;2023-05-10T14:18:30;6.95;;;2.22;;
39996;SDS011;25688;52.338;21.072;2023-05-10T14:20:56;7.22;;;2.20;;
39996;SDS011;25688;52.338;21.072;2023-05-10T14:23:22;9.60;;;5.20;;
39996;SDS011;25688;52.338;21.072;2023-05-10T14:25:53;9.77;;;4.78;;
39996;SDS011;25688;52.338;21.072;2023-05-10T14:28:19;4.72;;;2.20;;
39996;SDS011;25688;52.338;21.072;2023-05-10T14:30:45;8.27;;;2.55;;
39996;SDS011;25688;52.338;21.072;2023-05-10T14:33:11;5.55;;;2.00;;
39996;SDS011;25688;52.338;21.072;2023-05-10T14:35:38;5.88;;;2.10;;
39996;SDS011;25688;52.338;21.072;2023-05-10T14:38:04;6.72;;;2.30;;
39996;SDS011;25688;52.338;21.072;2023-05-10T14:40:29;6.90;;;2.28;;
39996;SDS011;25688;52.338;21.072;2023-05-10T14:42:55;6.13;;;2.25;;
39996;SDS011;25688;52.338;21.072;2023-05-10T14:45:22;6.75;;;2.40;;
39996;SDS011;25688;52.338;21.072;2023-05-10T14:47:48;7.60;;;2.63;;
39996;SDS011;25688;52.338;21.072;2023-05-10T14:50:15;7.07;;;2.38;;
39996;SDS011;25688;52.338;21.072;2023-05-10T14:56:00;7.18;;;2.50;;
39996;SDS011;25688;52.338;21.072;2023-05-10T14:58:28;7.45;;;2.45;;
39996;SDS011;25688;52.338;21.072;2023-05-10T15:00:56;7.20;;;2.20;;
39996;SDS011;25688;52.338;21.072;2023-05-10T15:03:22;8.50;;;2.33;;